sensor_id;sensor_type;location;lat;lon;timestamp;temperature;humidity
38380;DHT22;38377;47.418;18.882;2024-01-30T00:00:10;-2.90;99.90
38380;DHT22;38377;47.418;18.882;2024-01-30T00:02:36;-2.90;99.90
38380;DHT22;38377;47.418;18.882;2024-01-30T00:05:01;-2.90;99.90
38380;DHT22;38377;47.418;18.882;2024-01-30T00:07:28;-3.00;99.90
38380;DHT22;38377;47.418;18.882;2024-01-30T00:09:54;-3.00;99.90
38380;DHT22;38377;47.418;18.882;2024-01-30T00:12:20;-3.00;99.90
38380;DHT22;38377;47.418;18.882;2024-01-30T00:14:46;-3.00;99.90
38380;DHT22;38377;47.418;18.882;2024-01-30T00:17:11;-3.00;99.90
38380;DHT22;38377;47.418;18.882;2024-01-30T00:19:37;-3.00;99.90
38380;DHT22;38377;47.418;18.882;2024-01-30T00:22:02;-3.00;99.90
38380;DHT22;38377;47.418;18.882;2024-01-30T00:24:28;-3.00;99.90
38380;DHT22;38377;47.418;18.882;2024-01-30T00:26:53;-3.10;99.90
38380;DHT22;38377;47.418;18.882;2024-01-30T00:29:19;-3.00;99.90
38380;DHT22;38377;47.418;18.882;2024-01-30T00:31:45;-3.10;99.90
38380;DHT22;38377;47.418;18.882;2024-01-30T00:34:11;-3.10;99.90
38380;DHT22;38377;47.418;18.882;2024-01-30T00:36:37;-3.10;99.90
38380;DHT22;38377;47.418;18.882;2024-01-30T00:39:03;-3.10;99.90
38380;DHT22;38377;47.418;18.882;2024-01-30T00:41:32;-3.20;99.90
38380;DHT22;38377;47.418;18.882;2024-01-30T00:43:57;-3.10;99.90
38380;DHT22;38377;47.418;18.882;2024-01-30T00:46:23;-3.20;99.90
38380;DHT22;38377;47.418;18.882;2024-01-30T00:48:48;-3.20;99.90
38380;DHT22;38377;47.418;18.882;2024-01-30T00:51:14;-3.20;99.90
38380;DHT22;38377;47.418;18.882;2024-01-30T00:53:40;-3.10;99.90
38380;DHT22;38377;47.418;18.882;2024-01-30T00:56:07;-3.10;99.90
38380;DHT22;38377;47.418;18.882;2024-01-30T00:58:33;-3.20;99.90
38380;DHT22;38377;47.418;18.882;2024-01-30T01:00:59;-3.20;99.90
38380;DHT22;38377;47.418;18.882;2024-01-30T01:03:24;-3.20;99.90
38380;DHT22;38377;47.418;18.882;2024-01-30T01:05:50;-3.20;99.90
38380;DHT22;38377;47.418;18.882;2024-01-30T01:08:16;-3.20;99.90
38380;DHT22;38377;47.418;18.882;2024-01-30T01:10:41;-3.20;99.90
38380;DHT22;38377;47.418;18.882;2024-01-30T01:13:07;-3.30;99.90
38380;DHT22;38377;47.418;18.882;2024-01-30T01:15:32;-3.20;99.90
38380;DHT22;38377;47.418;18.882;2024-01-30T01:17:58;-3.30;99.90
38380;DHT22;38377;47.418;18.882;2024-01-30T01:20:24;-3.30;99.90
38380;DHT22;38377;47.418;18.882;2024-01-30T01:22:49;-3.30;99.90
38380;DHT22;38377;47.418;18.882;2024-01-30T01:25:15;-3.30;99.90
38380;DHT22;38377;47.418;18.882;2024-01-30T01:27:40;-3.30;99.90
38380;DHT22;38377;47.418;18.882;2024-01-30T01:30:10;-3.30;99.90
38380;DHT22;38377;47.418;18.882;2024-01-30T01:32:37;-3.30;99.90
38380;DHT22;38377;47.418;18.882;2024-01-30T01:35:04;-3.40;99.90
38380;DHT22;38377;47.418;18.882;2024-01-30T01:37:31;-3.40;99.90
38380;DHT22;38377;47.418;18.882;2024-01-30T01:39:56;-3.40;99.90
38380;DHT22;38377;47.418;18.882;2024-01-30T01:42:22;-3.40;99.90
38380;DHT22;38377;47.418;18.882;2024-01-30T01:44:48;-3.40;99.90
38380;DHT22;38377;47.418;18.882;2024-01-30T01:47:14;-3.40;99.90
38380;DHT22;38377;47.418;18.882;2024-01-30T01:49:40;-3.40;99.90
38380;DHT22;38377;47.418;18.882;2024-01-30T01:52:06;-3.40;99.90
38380;DHT22;38377;47.418;18.882;2024-01-30T01:54:32;-3.50;99.90
38380;DHT22;38377;47.418;18.882;2024-01-30T01:56:59;-3.40;99.90
38380;DHT22;38377;47.418;18.882;2024-01-30T01:59:25;-3.40;99.90
38380;DHT22;38377;47.418;18.882;2024-01-30T02:01:52;-3.50;99.90
38380;DHT22;38377;47.418;18.882;2024-01-30T02:04:18;-3.50;99.90
38380;DHT22;38377;47.418;18.882;2024-01-30T02:06:44;-3.50;99.90
38380;DHT22;38377;47.418;18.882;2024-01-30T02:09:09;-3.50;99.90
38380;DHT22;38377;47.418;18.882;2024-01-30T02:11:35;-3.50;99.90
38380;DHT22;38377;47.418;18.882;2024-01-30T02:14:04;-3.50;99.90
38380;DHT22;38377;47.418;18.882;2024-01-30T02:16:30;-3.50;99.90
38380;DHT22;38377;47.418;18.882;2024-01-30T02:18:56;-3.60;99.90
38380;DHT22;38377;47.418;18.882;2024-01-30T02:21:22;-3.50;99.90
38380;DHT22;38377;47.418;18.882;2024-01-30T02:23:48;-3.60;99.90
38380;DHT22;38377;47.418;18.882;2024-01-30T02:26:14;-3.50;99.90
38380;DHT22;38377;47.418;18.882;2024-01-30T02:28:40;-3.60;99.90
38380;DHT22;38377;47.418;18.882;2024-01-30T02:31:05;-3.60;99.90
38380;DHT22;38377;47.418;18.882;2024-01-30T02:33:31;-3.60;99.90
38380;DHT22;38377;47.418;18.882;2024-01-30T02:35:57;-3.70;99.90
38380;DHT22;38377;47.418;18.882;2024-01-30T02:38:23;-3.60;99.90
38380;DHT22;38377;47.418;18.882;2024-01-30T02:40:49;-3.70;99.90
38380;DHT22;38377;47.418;18.882;2024-01-30T02:43:15;-3.70;99.90
38380;DHT22;38377;47.418;18.882;2024-01-30T02:45:41;-3.70;99.90
38380;DHT22;38377;47.418;18.882;2024-01-30T02:48:07;-3.70;99.90
38380;DHT22;38377;47.418;18.882;2024-01-30T02:50:32;-3.70;99.90
38380;DHT22;38377;47.418;18.882;2024-01-30T02:52:58;-3.70;99.90
38380;DHT22;38377;47.418;18.882;2024-01-30T02:55:23;-3.70;99.90
38380;DHT22;38377;47.418;18.882;2024-01-30T02:57:49;-3.70;99.90
38380;DHT22;38377;47.418;18.882;2024-01-30T03:00:15;-3.70;99.90
38380;DHT22;38377;47.418;18.882;2024-01-30T03:02:40;-3.70;99.90
38380;DHT22;38377;47.418;18.882;2024-01-30T03:05:07;-3.70;99.90
38380;DHT22;38377;47.418;18.882;2024-01-30T03:07:33;-3.70;99.90
38380;DHT22;38377;47.418;18.882;2024-01-30T03:09:59;-3.70;99.90
38380;DHT22;38377;47.418;18.882;2024-01-30T03:12:24;-3.70;99.90
38380;DHT22;38377;47.418;18.882;2024-01-30T03:14:50;-3.70;99.90
38380;DHT22;38377;47.418;18.882;2024-01-30T03:17:15;-3.70;99.90
38380;DHT22;38377;47.418;18.882;2024-01-30T03:19:41;-3.70;99.90
38380;DHT22;38377;47.418;18.882;2024-01-30T03:22:07;-3.70;99.90
38380;DHT22;38377;47.418;18.882;2024-01-30T03:24:32;-3.80;99.90
38380;DHT22;38377;47.418;18.882;2024-01-30T03:26:58;-3.70;99.90
38380;DHT22;38377;47.418;18.882;2024-01-30T03:29:24;-3.80;99.90
38380;DHT22;38377;47.418;18.882;2024-01-30T03:31:49;-3.90;99.90
38380;DHT22;38377;47.418;18.882;2024-01-30T03:34:15;-3.80;99.90
38380;DHT22;38377;47.418;18.882;2024-01-30T03:36:40;-3.80;99.90
38380;DHT22;38377;47.418;18.882;2024-01-30T03:39:06;-3.80;99.90
38380;DHT22;38377;47.418;18.882;2024-01-30T03:41:31;-3.80;99.90
38380;DHT22;38377;47.418;18.882;2024-01-30T03:43:57;-3.80;99.90
38380;DHT22;38377;47.418;18.882;2024-01-30T03:46:23;-3.80;99.90
38380;DHT22;38377;47.418;18.882;2024-01-30T03:48:51;-3.80;99.90
38380;DHT22;38377;47.418;18.882;2024-01-30T03:51:19;-3.80;99.90
38380;DHT22;38377;47.418;18.882;2024-01-30T03:53:45;-3.80;99.90
38380;DHT22;38377;47.418;18.882;2024-01-30T03:56:13;-3.70;99.90
38380;DHT22;38377;47.418;18.882;2024-01-30T03:58:39;-3.80;99.90
38380;DHT22;38377;47.418;18.882;2024-01-30T04:01:05;-3.70;99.90
38380;DHT22;38377;47.418;18.882;2024-01-30T04:03:31;-3.70;99.90
38380;DHT22;38377;47.418;18.882;2024-01-30T04:05:56;-3.80;99.90
38380;DHT22;38377;47.418;18.882;2024-01-30T04:08:22;-3.80;99.90
38380;DHT22;38377;47.418;18.882;2024-01-30T04:10:48;-3.80;99.90
38380;DHT22;38377;47.418;18.882;2024-01-30T04:13:13;-3.90;99.90
38380;DHT22;38377;47.418;18.882;2024-01-30T04:15:39;-3.90;99.90
38380;DHT22;38377;47.418;18.882;2024-01-30T04:18:05;-3.90;99.90
38380;DHT22;38377;47.418;18.882;2024-01-30T04:20:31;-3.90;99.90
38380;DHT22;38377;47.418;18.882;2024-01-30T04:22:57;-4.00;99.90
38380;DHT22;38377;47.418;18.882;2024-01-30T04:25:22;-3.90;99.90
38380;DHT22;38377;47.418;18.882;2024-01-30T04:27:48;-4.00;99.90
38380;DHT22;38377;47.418;18.882;2024-01-30T04:30:14;-4.00;99.90
38380;DHT22;38377;47.418;18.882;2024-01-30T04:32:40;-4.00;99.90
38380;DHT22;38377;47.418;18.882;2024-01-30T04:35:06;-4.00;99.90
38380;DHT22;38377;47.418;18.882;2024-01-30T04:37:31;-4.00;99.90
38380;DHT22;38377;47.418;18.882;2024-01-30T04:39:57;-4.00;99.90
38380;DHT22;38377;47.418;18.882;2024-01-30T04:42:23;-4.00;99.90
38380;DHT22;38377;47.418;18.882;2024-01-30T04:44:49;-4.10;99.90
38380;DHT22;38377;47.418;18.882;2024-01-30T04:47:14;-4.00;99.90
38380;DHT22;38377;47.418;18.882;2024-01-30T04:49:40;-4.00;99.90
38380;DHT22;38377;47.418;18.882;2024-01-30T04:52:07;-4.10;99.90
38380;DHT22;38377;47.418;18.882;2024-01-30T04:54:33;-4.10;99.90
38380;DHT22;38377;47.418;18.882;2024-01-30T04:56:58;-4.10;99.90
38380;DHT22;38377;47.418;18.882;2024-01-30T04:59:24;-4.10;99.90
38380;DHT22;38377;47.418;18.882;2024-01-30T05:01:50;-4.10;99.90
38380;DHT22;38377;47.418;18.882;2024-01-30T05:04:15;-4.10;99.90
38380;DHT22;38377;47.418;18.882;2024-01-30T05:06:41;-4.10;99.90
38380;DHT22;38377;47.418;18.882;2024-01-30T05:09:06;-4.10;99.90
38380;DHT22;38377;47.418;18.882;2024-01-30T05:11:37;-4.10;99.90
38380;DHT22;38377;47.418;18.882;2024-01-30T05:14:04;-4.10;99.90
38380;DHT22;38377;47.418;18.882;2024-01-30T05:16:29;-4.10;99.90
38380;DHT22;38377;47.418;18.882;2024-01-30T05:18:55;-4.10;99.90
38380;DHT22;38377;47.418;18.882;2024-01-30T05:21:20;-4.10;99.90
38380;DHT22;38377;47.418;18.882;2024-01-30T05:23:46;-4.00;99.90
38380;DHT22;38377;47.418;18.882;2024-01-30T05:26:11;-4.10;99.90
38380;DHT22;38377;47.418;18.882;2024-01-30T05:28:37;-4.10;99.90
38380;DHT22;38377;47.418;18.882;2024-01-30T05:31:03;-4.10;99.90
38380;DHT22;38377;47.418;18.882;2024-01-30T05:33:28;-4.10;99.90
38380;DHT22;38377;47.418;18.882;2024-01-30T05:35:54;-4.10;99.90
38380;DHT22;38377;47.418;18.882;2024-01-30T05:38:20;-4.10;99.90
38380;DHT22;38377;47.418;18.882;2024-01-30T05:40:46;-4.10;99.90
38380;DHT22;38377;47.418;18.882;2024-01-30T05:43:12;-4.10;99.90
38380;DHT22;38377;47.418;18.882;2024-01-30T05:45:37;-4.10;99.90
38380;DHT22;38377;47.418;18.882;2024-01-30T05:48:04;-4.10;99.90
38380;DHT22;38377;47.418;18.882;2024-01-30T05:50:30;-4.10;99.90
38380;DHT22;38377;47.418;18.882;2024-01-30T05:52:55;-4.10;99.90
38380;DHT22;38377;47.418;18.882;2024-01-30T05:55:21;-4.10;99.90
38380;DHT22;38377;47.418;18.882;2024-01-30T05:57:46;-4.10;99.90
38380;DHT22;38377;47.418;18.882;2024-01-30T06:00:12;-4.20;99.90
38380;DHT22;38377;47.418;18.882;2024-01-30T06:02:39;-4.10;99.90
38380;DHT22;38377;47.418;18.882;2024-01-30T06:05:04;-4.20;99.90
38380;DHT22;38377;47.418;18.882;2024-01-30T06:07:31;-4.10;99.90
38380;DHT22;38377;47.418;18.882;2024-01-30T06:09:57;-4.10;99.90
38380;DHT22;38377;47.418;18.882;2024-01-30T06:12:22;-4.20;99.90
38380;DHT22;38377;47.418;18.882;2024-01-30T06:14:48;-4.20;99.90
38380;DHT22;38377;47.418;18.882;2024-01-30T06:17:13;-4.20;99.90
38380;DHT22;38377;47.418;18.882;2024-01-30T06:19:39;-4.10;99.90
38380;DHT22;38377;47.418;18.882;2024-01-30T06:22:05;-4.10;99.90
38380;DHT22;38377;47.418;18.882;2024-01-30T06:24:30;-4.10;99.90
38380;DHT22;38377;47.418;18.882;2024-01-30T06:26:56;-4.10;99.90
38380;DHT22;38377;47.418;18.882;2024-01-30T06:29:22;-4.10;99.90
38380;DHT22;38377;47.418;18.882;2024-01-30T06:31:47;-4.00;99.90
38380;DHT22;38377;47.418;18.882;2024-01-30T06:34:13;-4.00;99.90
38380;DHT22;38377;47.418;18.882;2024-01-30T06:36:39;-4.00;99.90
38380;DHT22;38377;47.418;18.882;2024-01-30T06:39:04;-4.00;99.90
38380;DHT22;38377;47.418;18.882;2024-01-30T06:41:31;-4.00;99.90
38380;DHT22;38377;47.418;18.882;2024-01-30T06:43:56;-4.00;99.90
38380;DHT22;38377;47.418;18.882;2024-01-30T06:46:22;-3.90;99.90
38380;DHT22;38377;47.418;18.882;2024-01-30T06:48:48;-3.90;99.90
38380;DHT22;38377;47.418;18.882;2024-01-30T06:51:13;-3.90;99.90
38380;DHT22;38377;47.418;18.882;2024-01-30T06:53:39;-3.80;99.90
38380;DHT22;38377;47.418;18.882;2024-01-30T06:56:05;-3.80;99.90
38380;DHT22;38377;47.418;18.882;2024-01-30T06:58:30;-3.70;99.90
38380;DHT22;38377;47.418;18.882;2024-01-30T07:00:56;-3.60;99.90
38380;DHT22;38377;47.418;18.882;2024-01-30T07:03:22;-3.50;99.90
38380;DHT22;38377;47.418;18.882;2024-01-30T07:05:48;-3.40;99.90
38380;DHT22;38377;47.418;18.882;2024-01-30T07:08:14;-3.30;99.90
38380;DHT22;38377;47.418;18.882;2024-01-30T07:10:43;-3.20;99.90
38380;DHT22;38377;47.418;18.882;2024-01-30T07:13:08;-3.00;99.90
38380;DHT22;38377;47.418;18.882;2024-01-30T07:15:35;-2.90;99.90
38380;DHT22;38377;47.418;18.882;2024-01-30T07:18:02;-2.70;99.90
38380;DHT22;38377;47.418;18.882;2024-01-30T07:20:27;-2.60;99.90
38380;DHT22;38377;47.418;18.882;2024-01-30T07:22:53;-2.50;99.90
38380;DHT22;38377;47.418;18.882;2024-01-30T07:25:19;-2.40;99.90
38380;DHT22;38377;47.418;18.882;2024-01-30T07:27:44;-2.30;99.90
38380;DHT22;38377;47.418;18.882;2024-01-30T07:30:10;-2.10;99.90
38380;DHT22;38377;47.418;18.882;2024-01-30T07:32:36;-2.00;99.90
38380;DHT22;38377;47.418;18.882;2024-01-30T07:35:01;-1.80;99.90
38380;DHT22;38377;47.418;18.882;2024-01-30T07:37:27;-1.60;99.90
38380;DHT22;38377;47.418;18.882;2024-01-30T07:39:54;-1.30;99.90
38380;DHT22;38377;47.418;18.882;2024-01-30T07:42:19;-1.10;99.90
38380;DHT22;38377;47.418;18.882;2024-01-30T07:44:45;-0.80;99.90
38380;DHT22;38377;47.418;18.882;2024-01-30T07:47:10;-0.50;99.90
38380;DHT22;38377;47.418;18.882;2024-01-30T07:49:36;-0.30;99.90
38380;DHT22;38377;47.418;18.882;2024-01-30T07:52:02;0.00;99.90
38380;DHT22;38377;47.418;18.882;2024-01-30T07:54:31;0.20;99.90
38380;DHT22;38377;47.418;18.882;2024-01-30T07:56:59;0.40;99.90
38380;DHT22;38377;47.418;18.882;2024-01-30T07:59:25;0.50;99.90
38380;DHT22;38377;47.418;18.882;2024-01-30T08:01:51;0.60;99.90
38380;DHT22;38377;47.418;18.882;2024-01-30T08:04:16;0.70;99.90
38380;DHT22;38377;47.418;18.882;2024-01-30T08:06:42;0.90;99.90
38380;DHT22;38377;47.418;18.882;2024-01-30T08:09:08;1.00;99.90
38380;DHT22;38377;47.418;18.882;2024-01-30T08:11:34;1.00;99.90
38380;DHT22;38377;47.418;18.882;2024-01-30T08:13:59;1.00;99.90
38380;DHT22;38377;47.418;18.882;2024-01-30T08:16:25;1.10;99.90
38380;DHT22;38377;47.418;18.882;2024-01-30T08:18:50;1.10;99.90
38380;DHT22;38377;47.418;18.882;2024-01-30T08:21:16;1.20;99.90
38380;DHT22;38377;47.418;18.882;2024-01-30T08:23:42;1.20;99.90
38380;DHT22;38377;47.418;18.882;2024-01-30T08:26:08;1.30;99.90
38380;DHT22;38377;47.418;18.882;2024-01-30T08:28:33;1.30;99.90
38380;DHT22;38377;47.418;18.882;2024-01-30T08:30:59;1.20;99.90
38380;DHT22;38377;47.418;18.882;2024-01-30T08:33:24;1.20;99.90
38380;DHT22;38377;47.418;18.882;2024-01-30T08:35:50;1.20;99.90
38380;DHT22;38377;47.418;18.882;2024-01-30T08:38:16;1.20;99.90
38380;DHT22;38377;47.418;18.882;2024-01-30T08:40:41;1.30;99.90
38380;DHT22;38377;47.418;18.882;2024-01-30T08:43:07;1.30;99.90
38380;DHT22;38377;47.418;18.882;2024-01-30T08:45:34;1.30;99.90
38380;DHT22;38377;47.418;18.882;2024-01-30T08:48:00;1.30;99.90
38380;DHT22;38377;47.418;18.882;2024-01-30T08:50:25;1.30;99.90
38380;DHT22;38377;47.418;18.882;2024-01-30T08:52:51;1.40;99.90
38380;DHT22;38377;47.418;18.882;2024-01-30T08:55:16;1.60;99.90
38380;DHT22;38377;47.418;18.882;2024-01-30T08:57:42;1.70;99.90
38380;DHT22;38377;47.418;18.882;2024-01-30T09:00:08;1.90;99.90
38380;DHT22;38377;47.418;18.882;2024-01-30T09:02:35;2.10;99.90
38380;DHT22;38377;47.418;18.882;2024-01-30T09:05:01;2.20;99.90
38380;DHT22;38377;47.418;18.882;2024-01-30T09:07:27;2.30;99.90
38380;DHT22;38377;47.418;18.882;2024-01-30T09:09:52;2.40;99.90
38380;DHT22;38377;47.418;18.882;2024-01-30T09:12:18;2.40;99.90
38380;DHT22;38377;47.418;18.882;2024-01-30T09:14:43;2.50;99.90
38380;DHT22;38377;47.418;18.882;2024-01-30T09:17:09;2.60;99.90
38380;DHT22;38377;47.418;18.882;2024-01-30T09:19:35;2.60;99.90
38380;DHT22;38377;47.418;18.882;2024-01-30T09:22:00;2.70;99.90
38380;DHT22;38377;47.418;18.882;2024-01-30T09:24:27;2.80;99.90
38380;DHT22;38377;47.418;18.882;2024-01-30T09:26:52;2.80;99.90
38380;DHT22;38377;47.418;18.882;2024-01-30T09:29:18;3.00;99.90
38380;DHT22;38377;47.418;18.882;2024-01-30T09:31:45;3.00;99.90
38380;DHT22;38377;47.418;18.882;2024-01-30T09:34:11;3.20;99.90
38380;DHT22;38377;47.418;18.882;2024-01-30T09:36:36;3.30;99.90
38380;DHT22;38377;47.418;18.882;2024-01-30T09:39:02;3.30;99.90
38380;DHT22;38377;47.418;18.882;2024-01-30T09:41:30;3.30;99.90
38380;DHT22;38377;47.418;18.882;2024-01-30T09:43:57;3.30;99.90
38380;DHT22;38377;47.418;18.882;2024-01-30T09:46:26;3.50;99.90
38380;DHT22;38377;47.418;18.882;2024-01-30T09:48:55;3.70;99.90
38380;DHT22;38377;47.418;18.882;2024-01-30T09:51:23;3.90;99.90
38380;DHT22;38377;47.418;18.882;2024-01-30T09:53:49;4.10;99.90
38380;DHT22;38377;47.418;18.882;2024-01-30T09:56:15;4.10;99.90
38380;DHT22;38377;47.418;18.882;2024-01-30T09:58:42;4.00;99.90
38380;DHT22;38377;47.418;18.882;2024-01-30T10:01:07;3.70;99.90
38380;DHT22;38377;47.418;18.882;2024-01-30T10:03:33;3.70;99.90
38380;DHT22;38377;47.418;18.882;2024-01-30T10:05:59;3.70;99.90
38380;DHT22;38377;47.418;18.882;2024-01-30T10:08:26;3.70;99.90
38380;DHT22;38377;47.418;18.882;2024-01-30T10:10:52;3.50;99.90
38380;DHT22;38377;47.418;18.882;2024-01-30T10:13:18;3.40;99.90
38380;DHT22;38377;47.418;18.882;2024-01-30T10:15:44;3.60;99.90
38380;DHT22;38377;47.418;18.882;2024-01-30T10:18:10;3.80;99.90
38380;DHT22;38377;47.418;18.882;2024-01-30T10:20:36;3.90;99.90
38380;DHT22;38377;47.418;18.882;2024-01-30T10:23:02;3.90;99.90
38380;DHT22;38377;47.418;18.882;2024-01-30T10:25:29;3.80;99.90
38380;DHT22;38377;47.418;18.882;2024-01-30T10:27:56;3.60;99.90
38380;DHT22;38377;47.418;18.882;2024-01-30T10:30:22;3.40;99.90
38380;DHT22;38377;47.418;18.882;2024-01-30T10:32:48;3.50;99.90
38380;DHT22;38377;47.418;18.882;2024-01-30T10:35:14;3.40;99.90
38380;DHT22;38377;47.418;18.882;2024-01-30T10:37:41;3.50;99.90
38380;DHT22;38377;47.418;18.882;2024-01-30T10:40:09;3.50;99.90
38380;DHT22;38377;47.418;18.882;2024-01-30T10:42:42;3.50;99.90
38380;DHT22;38377;47.418;18.882;2024-01-30T10:45:14;3.60;99.90
38380;DHT22;38377;47.418;18.882;2024-01-30T10:47:50;3.60;99.90
38380;DHT22;38377;47.418;18.882;2024-01-30T10:50:16;3.60;99.90
38380;DHT22;38377;47.418;18.882;2024-01-30T10:52:42;3.80;99.90
38380;DHT22;38377;47.418;18.882;2024-01-30T10:55:08;3.90;99.90
38380;DHT22;38377;47.418;18.882;2024-01-30T10:57:37;3.90;99.90
38380;DHT22;38377;47.418;18.882;2024-01-30T11:00:13;3.80;99.90
38380;DHT22;38377;47.418;18.882;2024-01-30T11:02:43;3.60;99.90
38380;DHT22;38377;47.418;18.882;2024-01-30T11:05:10;3.60;99.90
38380;DHT22;38377;47.418;18.882;2024-01-30T11:07:36;3.60;99.90
38380;DHT22;38377;47.418;18.882;2024-01-30T11:10:04;3.70;99.90
38380;DHT22;38377;47.418;18.882;2024-01-30T11:12:32;3.60;99.90
38380;DHT22;38377;47.418;18.882;2024-01-30T11:15:06;3.60;99.90
38380;DHT22;38377;47.418;18.882;2024-01-30T11:20:19;3.80;99.90
38380;DHT22;38377;47.418;18.882;2024-01-30T11:22:46;4.00;99.90
38380;DHT22;38377;47.418;18.882;2024-01-30T11:25:15;4.00;99.90
38380;DHT22;38377;47.418;18.882;2024-01-30T11:27:42;4.10;99.90
38380;DHT22;38377;47.418;18.882;2024-01-30T11:30:08;4.20;99.90
38380;DHT22;38377;47.418;18.882;2024-01-30T11:32:34;4.30;99.90
38380;DHT22;38377;47.418;18.882;2024-01-30T11:35:02;4.50;99.90
38380;DHT22;38377;47.418;18.882;2024-01-30T11:37:28;4.60;99.90
38380;DHT22;38377;47.418;18.882;2024-01-30T11:39:56;4.70;99.90
38380;DHT22;38377;47.418;18.882;2024-01-30T11:42:23;4.70;99.90
38380;DHT22;38377;47.418;18.882;2024-01-30T11:44:50;4.80;99.90
38380;DHT22;38377;47.418;18.882;2024-01-30T11:47:16;4.90;99.90
38380;DHT22;38377;47.418;18.882;2024-01-30T11:49:43;4.80;99.90
38380;DHT22;38377;47.418;18.882;2024-01-30T11:52:09;4.80;99.90
38380;DHT22;38377;47.418;18.882;2024-01-30T11:54:35;4.80;99.90
38380;DHT22;38377;47.418;18.882;2024-01-30T11:57:00;4.70;99.90
38380;DHT22;38377;47.418;18.882;2024-01-30T11:59:26;4.70;99.90
38380;DHT22;38377;47.418;18.882;2024-01-30T12:01:52;4.70;99.90
38380;DHT22;38377;47.418;18.882;2024-01-30T12:04:18;4.60;99.90
38380;DHT22;38377;47.418;18.882;2024-01-30T12:06:43;4.70;99.90
38380;DHT22;38377;47.418;18.882;2024-01-30T12:09:09;4.60;99.90
38380;DHT22;38377;47.418;18.882;2024-01-30T12:11:47;4.50;99.90
38380;DHT22;38377;47.418;18.882;2024-01-30T12:14:14;4.40;99.90
38380;DHT22;38377;47.418;18.882;2024-01-30T12:16:40;4.40;99.90
38380;DHT22;38377;47.418;18.882;2024-01-30T12:19:07;4.40;99.90
38380;DHT22;38377;47.418;18.882;2024-01-30T12:21:33;4.30;99.90
38380;DHT22;38377;47.418;18.882;2024-01-30T12:24:00;4.30;99.90
38380;DHT22;38377;47.418;18.882;2024-01-30T12:26:26;4.30;99.90
38380;DHT22;38377;47.418;18.882;2024-01-30T12:28:54;4.30;99.90
38380;DHT22;38377;47.418;18.882;2024-01-30T12:31:27;4.40;99.90
38380;DHT22;38377;47.418;18.882;2024-01-30T12:33:53;4.40;99.90
38380;DHT22;38377;47.418;18.882;2024-01-30T12:36:19;4.50;99.90
38380;DHT22;38377;47.418;18.882;2024-01-30T12:38:44;4.60;99.90
38380;DHT22;38377;47.418;18.882;2024-01-30T12:41:10;4.50;99.90
38380;DHT22;38377;47.418;18.882;2024-01-30T12:43:36;4.50;99.90
38380;DHT22;38377;47.418;18.882;2024-01-30T12:46:03;4.50;99.90
38380;DHT22;38377;47.418;18.882;2024-01-30T12:48:28;4.50;99.90
38380;DHT22;38377;47.418;18.882;2024-01-30T12:50:56;4.50;99.90
38380;DHT22;38377;47.418;18.882;2024-01-30T12:53:21;4.50;99.90
38380;DHT22;38377;47.418;18.882;2024-01-30T12:55:47;4.60;99.90
38380;DHT22;38377;47.418;18.882;2024-01-30T12:58:13;4.60;99.90
38380;DHT22;38377;47.418;18.882;2024-01-30T13:00:38;4.60;99.90
38380;DHT22;38377;47.418;18.882;2024-01-30T13:03:04;4.60;99.90
38380;DHT22;38377;47.418;18.882;2024-01-30T13:05:30;4.60;99.90
38380;DHT22;38377;47.418;18.882;2024-01-30T13:07:55;4.60;99.90
38380;DHT22;38377;47.418;18.882;2024-01-30T13:10:22;4.70;99.90
38380;DHT22;38377;47.418;18.882;2024-01-30T13:12:48;4.70;99.90
38380;DHT22;38377;47.418;18.882;2024-01-30T13:15:13;4.70;99.90
38380;DHT22;38377;47.418;18.882;2024-01-30T13:17:39;4.60;99.90
38380;DHT22;38377;47.418;18.882;2024-01-30T13:20:05;4.60;99.90
38380;DHT22;38377;47.418;18.882;2024-01-30T13:22:33;4.60;99.90
38380;DHT22;38377;47.418;18.882;2024-01-30T13:24:59;4.70;99.90
38380;DHT22;38377;47.418;18.882;2024-01-30T13:27:25;4.80;99.90
38380;DHT22;38377;47.418;18.882;2024-01-30T13:29:50;4.80;99.90
38380;DHT22;38377;47.418;18.882;2024-01-30T13:32:16;4.80;99.90
38380;DHT22;38377;47.418;18.882;2024-01-30T13:34:41;4.80;99.90
38380;DHT22;38377;47.418;18.882;2024-01-30T13:37:08;4.80;99.90
38380;DHT22;38377;47.418;18.882;2024-01-30T13:39:34;4.80;99.90
38380;DHT22;38377;47.418;18.882;2024-01-30T13:41:59;4.80;99.90
38380;DHT22;38377;47.418;18.882;2024-01-30T13:44:25;4.80;99.90
38380;DHT22;38377;47.418;18.882;2024-01-30T13:46:50;4.80;99.90
38380;DHT22;38377;47.418;18.882;2024-01-30T13:49:16;4.90;99.90
38380;DHT22;38377;47.418;18.882;2024-01-30T13:51:41;4.80;99.90
38380;DHT22;38377;47.418;18.882;2024-01-30T13:54:07;4.80;99.90
38380;DHT22;38377;47.418;18.882;2024-01-30T13:56:33;4.70;99.90
38380;DHT22;38377;47.418;18.882;2024-01-30T13:58:59;4.80;99.90
38380;DHT22;38377;47.418;18.882;2024-01-30T14:01:26;4.80;99.90
38380;DHT22;38377;47.418;18.882;2024-01-30T14:03:52;4.80;99.90
38380;DHT22;38377;47.418;18.882;2024-01-30T14:06:18;4.70;99.70
38380;DHT22;38377;47.418;18.882;2024-01-30T14:08:44;4.70;99.90
38380;DHT22;38377;47.418;18.882;2024-01-30T14:11:10;4.80;99.90
38380;DHT22;38377;47.418;18.882;2024-01-30T14:13:36;4.80;98.80
38380;DHT22;38377;47.418;18.882;2024-01-30T14:16:02;4.80;98.90
38380;DHT22;38377;47.418;18.882;2024-01-30T14:18:28;4.70;98.80
38380;DHT22;38377;47.418;18.882;2024-01-30T14:20:53;4.70;99.10
38380;DHT22;38377;47.418;18.882;2024-01-30T14:23:19;4.70;99.00
38380;DHT22;38377;47.418;18.882;2024-01-30T14:25:45;4.70;99.20
38380;DHT22;38377;47.418;18.882;2024-01-30T14:28:10;4.60;99.10
38380;DHT22;38377;47.418;18.882;2024-01-30T14:30:36;4.60;99.10
38380;DHT22;38377;47.418;18.882;2024-01-30T14:33:02;4.60;99.00
38380;DHT22;38377;47.418;18.882;2024-01-30T14:35:28;4.60;98.90
38380;DHT22;38377;47.418;18.882;2024-01-30T14:37:53;4.60;98.90
38380;DHT22;38377;47.418;18.882;2024-01-30T14:40:19;4.50;99.00
38380;DHT22;38377;47.418;18.882;2024-01-30T14:42:45;4.50;99.00
38380;DHT22;38377;47.418;18.882;2024-01-30T14:45:11;4.40;98.90
38380;DHT22;38377;47.418;18.882;2024-01-30T14:47:37;4.40;99.20
38380;DHT22;38377;47.418;18.882;2024-01-30T14:50:03;4.30;99.30
38380;DHT22;38377;47.418;18.882;2024-01-30T14:52:29;4.30;99.40
38380;DHT22;38377;47.418;18.882;2024-01-30T14:54:55;4.30;99.70
38380;DHT22;38377;47.418;18.882;2024-01-30T14:57:20;4.30;99.90
38380;DHT22;38377;47.418;18.882;2024-01-30T14:59:46;4.20;99.90
38380;DHT22;38377;47.418;18.882;2024-01-30T15:02:14;4.20;99.90
38380;DHT22;38377;47.418;18.882;2024-01-30T15:04:40;4.20;99.90
38380;DHT22;38377;47.418;18.882;2024-01-30T15:07:06;4.20;99.90
38380;DHT22;38377;47.418;18.882;2024-01-30T15:09:32;4.20;99.90
38380;DHT22;38377;47.418;18.882;2024-01-30T15:11:58;4.10;99.90
38380;DHT22;38377;47.418;18.882;2024-01-30T15:14:23;4.10;99.90
38380;DHT22;38377;47.418;18.882;2024-01-30T15:16:49;4.00;99.90